Time;durP1;ratioP1;P1;durP2;ratioP2;P2;SDS_P1;SDS_P2;PMS_P1;PMS_P2;Temp;Humidity;BMP_temperature;BMP_pressure;BME280_temperature;BME280_humidity;BME280_pressure;Samples;Min_cycle;Max_cycle;Signal;HPM_P1;HPM_P2
2023/07/19 00:02:46;;;;;;;5.35;4.32;;;;;;;23.05;50.14;99559.06;10358246;28;20229;-70
2023/07/19 00:07:48;;;;;;;9.43;5.47;;;;;;;21.70;52.27;99589.75;10356412;28;20243;-70
2023/07/19 00:12:50;;;;;;;7.10;4.90;;;;;;;22.39;50.37;99617.06;10365266;28;20965;-70
2023/07/19 00:17:57;;;;;;;9.55;5.57;;;;;;;23.35;49.03;99562.91;10360813;28;20241;-73
2023/07/19 00:22:59;;;;;;;9.88;5.10;;;;;;;22.94;50.34;99551.97;10365252;28;20240;-70
2023/07/19 00:28:01;;;;;;;7.25;5.40;;;;;;;24.16;47.46;99541.91;10361830;28;20283;-71
2023/07/19 00:33:03;;;;;;;10.73;5.35;;;;;;;23.06;49.06;99579.81;10360056;28;20233;-70
2023/07/19 00:38:05;;;;;;;6.95;4.57;;;;;;;22.74;50.03;99559.09;10364618;28;20318;-71
2023/07/19 00:43:10;;;;;;;8.43;4.90;;;;;;;21.72;52.12;99579.41;10365777;28;20236;-70
2023/07/19 00:48:13;;;;;;;6.47;4.88;;;;;;;22.39;50.85;99536.09;10363470;28;20260;-70
2023/07/19 00:53:16;;;;;;;10.30;5.25;;;;;;;22.93;50.34;99509.44;10366031;28;20367;-70
2023/07/19 00:58:21;;;;;;;6.45;4.85;;;;;;;21.86;52.68;99532.63;10365196;28;20264;-70
2023/07/19 01:03:23;;;;;;;7.57;5.38;;;;;;;21.18;53.89;99564.06;10364689;28;20233;-70
2023/07/19 01:08:26;;;;;;;6.00;4.65;;;;;;;21.55;53.18;99552.34;10373110;28;20241;-70
2023/07/19 01:13:27;;;;;;;8.15;5.28;;;;;;;21.74;52.04;99546.47;10356233;28;20314;-70
2023/07/19 01:18:29;;;;;;;8.73;5.57;;;;;;;20.91;54.13;99576.91;10365769;28;20263;-71
2023/07/19 01:23:31;;;;;;;9.52;5.45;;;;;;;21.27;53.36;99542.63;10364484;28;20236;-70
2023/07/19 01:28:33;;;;;;;7.18;5.75;;;;;;;21.09;53.89;99568.34;10361235;28;20283;-72
2023/07/19 01:33:34;;;;;;;9.40;5.20;;;;;;;21.60;52.33;99568.72;10365974;28;20236;-71
2023/07/19 01:38:36;;;;;;;7.88;4.70;;;;;;;22.10;51.99;99528.41;10362194;28;20248;-71
2023/07/19 01:43:38;;;;;;;7.88;5.15;;;;;;;22.49;51.09;99543.47;10362206;28;20254;-70
2023/07/19 01:48:40;;;;;;;9.25;5.32;;;;;;;22.33;51.64;99531.72;10365912;28;20732;-71
2023/07/19 01:53:41;;;;;;;7.53;5.38;;;;;;;20.61;55.30;99575.50;10367397;28;20243;-70
2023/07/19 01:58:43;;;;;;;7.55;5.22;;;;;;;22.29;51.42;99522.44;10363251;28;20914;-70
2023/07/19 02:03:45;;;;;;;7.47;5.15;;;;;;;21.68;52.83;99537.47;10360153;28;20787;-70
2023/07/19 02:08:47;;;;;;;7.63;5.20;;;;;;;21.57;53.39;99520.25;10363771;28;20229;-72
2023/07/19 02:13:48;;;;;;;9.80;5.78;;;;;;;21.68;53.20;99509.41;10363042;28;20342;-70
2023/07/19 02:18:50;;;;;;;8.10;5.70;;;;;;;22.30;51.65;99514.00;10362560;28;20708;-70
2023/07/19 02:23:52;;;;;;;7.30;4.72;;;;;;;21.51;52.85;99543.09;10363552;28;20234;-70
2023/07/19 02:28:54;;;;;;;7.55;5.18;;;;;;;21.76;52.25;99530.66;10364027;28;20236;-70
2023/07/19 02:33:55;;;;;;;9.90;5.30;;;;;;;21.07;53.57;99539.75;10361719;28;20245;-70
2023/07/19 02:38:57;;;;;;;6.30;5.03;;;;;;;21.16;53.26;99535.50;10362473;28;20226;-72
2023/07/19 02:43:59;;;;;;;7.30;5.20;;;;;;;20.76;55.11;99524.00;10366878;28;20253;-70
2023/07/19 02:49:01;;;;;;;9.45;5.72;;;;;;;21.03;53.67;99534.84;10368607;28;20276;-70
2023/07/19 02:54:02;;;;;;;10.15;5.93;;;;;;;20.33;55.99;99568.41;10363910;28;20319;-71
2023/07/19 02:59:05;;;;;;;7.57;5.75;;;;;;;21.41;53.30;99534.88;10361037;28;20243;-70
2023/07/19 03:04:06;;;;;;;10.00;5.50;;;;;;;21.10;54.36;99517.47;10367222;28;20260;-72
2023/07/19 03:09:10;;;;;;;8.48;5.97;;;;;;;20.66;54.36;99600.03;10355078;28;20282;-72
2023/07/19 03:14:12;;;;;;;7.82;6.00;;;;;;;20.06;56.09;99601.78;10366489;28;20274;-70
2023/07/19 03:19:14;;;;;;;10.73;6.30;;;;;;;20.36;55.38;99581.50;10363218;28;20329;-70
2023/07/19 03:24:16;;;;;;;8.10;5.78;;;;;;;20.83;54.49;99564.59;10363793;28;20236;-72
2023/07/19 03:29:17;;;;;;;8.82;6.22;;;;;;;20.12;55.83;99614.31;10364685;28;20240;-72
2023/07/19 03:34:19;;;;;;;9.07;6.00;;;;;;;20.06;55.60;99607.22;10364137;28;20221;-71
2023/07/19 03:39:21;;;;;;;7.82;5.55;;;;;;;20.48;55.30;99563.13;10364531;28;20312;-72
2023/07/19 03:44:23;;;;;;;11.95;6.07;;;;;;;19.38;56.69;99642.56;10352892;28;20267;-70
2023/07/19 03:49:24;;;;;;;10.20;5.90;;;;;;;21.13;54.00;99544.97;10373801;28;20388;-72
2023/07/19 03:54:26;;;;;;;7.43;5.40;;;;;;;20.81;53.93;99574.91;10368229;28;21185;-72
2023/07/19 03:59:30;;;;;;;6.88;5.43;;;;;;;20.18;55.39;99591.63;10368591;28;20239;-72
2023/07/19 04:04:32;;;;;;;6.95;5.50;;;;;;;19.87;55.62;99626.50;10369724;28;20274;-71
2023/07/19 04:09:33;;;;;;;9.98;5.05;;;;;;;20.12;55.38;99604.28;10360593;28;20676;-71
2023/07/19 04:14:35;;;;;;;7.60;5.40;;;;;;;20.40;54.95;99569.88;10366035;28;20220;-71
2023/07/19 04:19:37;;;;;;;8.80;5.47;;;;;;;20.63;54.13;99590.50;10364274;28;20618;-69
2023/07/19 04:24:39;;;;;;;7.40;5.80;;;;;;;20.79;53.44;99591.47;10366548;28;20326;-72
2023/07/19 04:29:41;;;;;;;5.88;5.00;;;;;;;20.77;53.59;99601.81;10372928;28;20328;-72
2023/07/19 04:34:43;;;;;;;5.50;4.38;;;;;;;20.91;53.87;99585.88;10370310;28;20727;-71
2023/07/19 04:39:44;;;;;;;8.23;5.75;;;;;;;20.02;55.57;99612.28;10366217;28;20241;-71
2023/07/19 04:44:46;;;;;;;9.77;5.47;;;;;;;20.37;55.06;99580.44;10361950;28;20232;-72
2023/07/19 04:49:48;;;;;;;6.93;5.05;;;;;;;20.56;53.63;99608.88;10379459;28;20237;-69
2023/07/19 04:54:49;;;;;;;7.05;5.55;;;;;;;21.36;52.74;99568.31;10362313;28;20232;-71
2023/07/19 04:59:51;;;;;;;9.65;5.70;;;;;;;20.90;53.80;99616.84;10360168;28;20244;-71
2023/07/19 05:04:53;;;;;;;7.82;5.38;;;;;;;20.68;54.30;99615.00;10362295;28;20283;-72
2023/07/19 05:09:55;;;;;;;7.03;5.35;;;;;;;20.78;54.67;99603.41;10358851;28;20316;-71
2023/07/19 05:14:57;;;;;;;7.25;5.22;;;;;;;21.11;53.96;99568.91;10361493;28;20719;-70
2023/07/19 05:19:59;;;;;;;8.43;5.63;;;;;;;21.53;52.07;99619.06;10360539;28;20237;-71
2023/07/19 05:25:03;;;;;;;6.75;5.25;;;;;;;21.59;51.97;99645.22;10361294;28;20428;-71
2023/07/19 05:30:05;;;;;;;6.40;4.85;;;;;;;21.27;52.97;99629.69;10360934;28;21163;-71
2023/07/19 05:35:07;;;;;;;6.90;4.90;;;;;;;21.39;52.44;99629.53;10363390;28;20260;-70
2023/07/19 05:40:09;;;;;;;7.55;4.90;;;;;;;21.81;52.12;99600.69;10357510;28;20290;-71
2023/07/19 05:45:11;;;;;;;9.00;4.60;;;;;;;22.77;49.88;99588.50;10366105;28;20239;-72
2023/07/19 05:50:13;;;;;;;8.48;4.72;;;;;;;21.66;52.25;99624.03;10360699;28;20264;-71
2023/07/19 05:55:15;;;;;;;6.20;4.38;;;;;;;22.15;51.21;99629.22;10366594;28;20255;-72
2023/07/19 06:00:28;;;;;;;6.00;4.25;;;;;;;22.41;50.65;99618.41;10361355;28;20250;-72
2023/07/19 06:05:30;;;;;;;8.02;5.05;;;;;;;21.97;51.99;99630.50;10361492;28;20512;-71
2023/07/19 06:10:31;;;;;;;7.78;4.68;;;;;;;20.92;52.83;99706.34;10362143;28;20244;-71
2023/07/19 06:15:33;;;;;;;5.72;4.30;;;;;;;22.16;50.48;99651.84;10359239;28;20256;-71
2023/07/19 06:20:35;;;;;;;6.43;3.80;;;;;;;23.26;49.03;99588.03;10358099;28;20237;-71
2023/07/19 06:25:37;;;;;;;7.28;4.38;;;;;;;22.58;49.70;99655.56;10357530;28;20855;-71
2023/07/19 06:30:39;;;;;;;6.20;3.60;;;;;;;22.86;49.32;99630.53;10358633;28;20241;-71
2023/07/19 06:35:41;;;;;;;7.03;4.35;;;;;;;22.89;49.72;99613.66;10358499;28;20237;-71
2023/07/19 06:40:43;;;;;;;4.63;3.55;;;;;;;22.50;49.55;99678.69;10358479;28;20340;-71
2023/07/19 06:45:45;;;;;;;10.20;3.75;;;;;;;23.26;49.02;99645.34;10361128;28;20233;-71
2023/07/19 06:50:47;;;;;;;6.28;3.72;;;;;;;22.97;49.91;99653.19;10363847;28;20364;-71
2023/07/19 06:55:52;;;;;;;8.93;3.88;;;;;;;23.67;48.48;99627.28;10354023;28;20240;-72
2023/07/19 07:00:55;;;;;;;6.72;3.22;;;;;;;23.66;47.47;99631.94;10359862;28;20328;-71
2023/07/19 07:06:00;;;;;;;4.78;3.63;;;;;;;22.86;49.32;99635.19;10358427;28;20244;-71
2023/07/19 07:11:04;;;;;;;8.80;3.63;;;;;;;22.94;47.91;99637.34;10364421;28;20612;-72
2023/07/19 07:16:06;;;;;;;6.10;3.60;;;;;;;22.70;49.09;99647.97;10362939;28;20233;-71
2023/07/19 07:21:08;;;;;;;7.28;3.78;;;;;;;23.05;48.23;99630.84;10362361;28;20691;-71
2023/07/19 07:26:11;;;;;;;6.45;3.65;;;;;;;22.73;48.52;99657.53;10367609;28;20295;-71
2023/07/19 07:31:13;;;;;;;4.68;3.75;;;;;;;23.62;48.11;99623.50;10368295;28;20232;-71
2023/07/19 07:36:15;;;;;;;4.72;3.50;;;;;;;23.87;47.56;99620.97;10367353;28;20317;-71
2023/07/19 07:41:16;;;;;;;6.72;4.00;;;;;;;24.16;46.67;99657.53;10370137;28;20263;-72
2023/07/19 07:46:18;;;;;;;7.32;3.38;;;;;;;23.58;47.40;99644.22;10364703;28;20232;-71
2023/07/19 07:51:20;;;;;;;6.10;3.63;;;;;;;24.01;47.21;99632.94;10372983;28;20263;-72
2023/07/19 07:56:25;;;;;;;4.03;3.10;;;;;;;24.83;45.23;99593.47;10364119;28;20233;-71
2023/07/19 08:01:27;;;;;;;4.65;3.28;;;;;;;24.98;45.14;99600.75;10364311;28;20325;-71
2023/07/19 08:06:29;;;;;;;3.97;3.30;;;;;;;24.07;45.87;99629.09;10367837;28;20252;-72
2023/07/19 08:11:32;;;;;;;4.93;3.15;;;;;;;24.53;45.75;99606.22;10363967;28;20331;-71
2023/07/19 08:16:34;;;;;;;5.28;2.90;;;;;;;24.54;45.65;99616.06;10370285;28;20723;-71
2023/07/19 08:21:35;;;;;;;5.13;2.90;;;;;;;24.42;44.79;99613.66;10361809;28;20247;-72
2023/07/19 08:26:39;;;;;;;4.07;3.22;;;;;;;24.65;44.91;99590.28;10368894;28;20237;-71
2023/07/19 08:31:42;;;;;;;5.90;3.20;;;;;;;24.98;44.17;99576.91;10366664;28;20797;-72
2023/07/19 08:36:44;;;;;;;6.38;3.30;;;;;;;25.08;44.44;99576.81;10365472;28;20236;-71
2023/07/19 08:41:45;;;;;;;5.47;3.00;;;;;;;24.77;44.68;99570.81;10367006;28;20711;-71
2023/07/19 08:46:49;;;;;;;3.83;2.65;;;;;;;25.99;42.81;99546.03;10366493;28;20369;-72
2023/07/19 08:51:51;;;;;;;4.13;2.60;;;;;;;25.39;42.43;99583.97;10367406;28;20236;-72
2023/07/19 08:56:53;;;;;;;6.30;2.63;;;;;;;25.26;42.96;99580.00;10364035;28;20236;-71
2023/07/19 09:01:55;;;;;;;6.93;3.15;;;;;;;26.19;40.57;99542.22;10363771;28;20229;-71
2023/07/19 09:07:02;;;;;;;3.92;2.75;;;;;;;25.82;40.50;99560.22;10368552;28;20720;-71
2023/07/19 09:12:08;;;;;;;3.75;2.60;;;;;;;26.05;41.57;99513.91;10364877;28;20740;-71
2023/07/19 09:17:09;;;;;;;3.85;2.50;;;;;;;25.77;39.64;99543.84;10363863;28;20288;-72
2023/07/19 09:22:14;;;;;;;2.95;2.53;;;;;;;25.48;40.66;99538.41;10363323;28;20306;-71
2023/07/19 09:27:24;;;;;;;3.13;2.53;;;;;;;25.78;40.27;99517.28;10365560;28;20306;-72
2023/07/19 09:32:25;;;;;;;3.95;2.42;;;;;;;26.25;38.61;99503.78;10355521;28;20248;-72
2023/07/19 09:37:27;;;;;;;2.75;2.10;;;;;;;27.67;37.90;99501.59;10361304;28;20332;-72
2023/07/19 09:42:36;;;;;;;3.45;2.08;;;;;;;27.45;36.33;99510.56;10367479;28;20664;-72
2023/07/19 09:47:40;;;;;;;1.90;1.60;;;;;;;26.75;37.61;99518.66;10360090;28;20612;-72
2023/07/19 09:52:44;;;;;;;4.60;2.30;;;;;;;28.09;36.42;99455.63;10364506;28;20248;-72
2023/07/19 09:57:48;;;;;;;2.88;2.08;;;;;;;28.20;35.89;99483.72;10361797;28;20249;-72
2023/07/19 10:02:50;;;;;;;2.72;2.30;;;;;;;28.56;36.15;99485.59;10364599;28;20237;-72
2023/07/19 10:07:52;;;;;;;4.50;2.08;;;;;;;28.12;36.30;99478.91;10358856;28;20240;-71
2023/07/19 10:12:54;;;;;;;4.03;2.30;;;;;;;28.09;37.48;99479.53;10368511;28;20311;-73
2023/07/19 10:18:00;;;;;;;3.22;2.03;;;;;;;28.44;35.59;99450.38;10363289;28;20237;-70
2023/07/19 10:23:05;;;;;;;4.57;2.85;;;;;;;27.48;36.42;99463.22;10362872;28;20320;-70
2023/07/19 10:28:09;;;;;;;2.78;2.22;;;;;;;27.80;36.20;99466.97;10360649;28;20728;-70
2023/07/19 10:33:19;;;;;;;4.50;2.70;;;;;;;28.00;36.16;99440.97;10358635;28;20324;-69
2023/07/19 10:38:24;;;;;;;3.30;2.50;;;;;;;28.55;35.26;99442.69;10363621;28;20615;-70
2023/07/19 10:43:28;;;;;;;4.25;2.42;;;;;;;27.19;36.84;99422.31;10359473;28;20228;-72
2023/07/19 10:48:50;;;;;;;4.30;2.15;;;;;;;27.54;37.18;99423.53;10359746;28;20461;-71
2023/07/19 10:54:02;;;;;;;3.13;2.22;;;;;;;27.67;36.78;99399.91;10358220;28;20239;-73
2023/07/19 10:59:03;;;;;;;3.53;2.47;;;;;;;27.71;36.78;99433.13;10360048;28;20240;-72
2023/07/19 11:06:20;;;;;;;6.80;2.35;;;;;;;26.11;39.96;99328.22;10475220;27;2457894;-71
2023/07/19 11:11:22;;;;;;;5.25;2.35;;;;;;;26.84;39.77;99329.41;10467634;28;20227;-71
2023/07/19 11:16:26;;;;;;;4.70;2.22;;;;;;;27.87;38.17;99329.94;10448792;28;20623;-71
2023/07/19 11:21:28;;;;;;;5.55;2.28;;;;;;;26.25;39.21;99364.75;10454912;28;20314;-71
2023/07/19 11:26:30;;;;;;;6.22;2.47;;;;;;;27.38;38.22;99359.06;10453129;28;20258;-71
2023/07/19 11:31:38;;;;;;;3.88;2.15;;;;;;;27.42;37.91;99355.41;10455033;28;20235;-71
2023/07/19 11:36:42;;;;;;;5.15;2.85;;;;;;;27.47;38.36;99355.28;10451359;28;20236;-71
2023/07/19 11:41:46;;;;;;;4.05;2.47;;;;;;;27.69;38.56;99356.44;10478875;28;20235;-71
2023/07/19 11:46:48;;;;;;;4.28;2.40;;;;;;;27.68;37.55;99355.66;10473732;28;20839;-71
2023/07/19 11:51:50;;;;;;;3.63;2.25;;;;;;;27.80;36.09;99337.78;10453584;28;20228;-71
2023/07/19 11:56:51;;;;;;;4.82;2.33;;;;;;;26.79;35.85;99387.16;10485034;28;20276;-71
2023/07/19 12:01:54;;;;;;;6.53;2.75;;;;;;;26.44;36.22;99361.16;10485360;28;20964;-70
2023/07/19 12:06:56;;;;;;;3.45;2.60;;;;;;;26.79;37.15;99342.41;10486481;28;20253;-71
2023/07/19 12:11:58;;;;;;;3.47;2.33;;;;;;;28.21;35.48;99359.63;10480367;28;20247;-71
2023/07/19 12:16:59;;;;;;;6.03;2.63;;;;;;;26.64;37.12;99371.75;10459900;28;20930;-71
2023/07/19 12:22:04;;;;;;;3.60;2.50;;;;;;;26.39;36.15;99397.72;10451445;28;23203;-70
2023/07/19 12:27:08;;;;;;;2.42;2.03;;;;;;;27.83;34.97;99360.00;10455521;28;20228;-70
2023/07/19 12:32:10;;;;;;;4.85;2.30;;;;;;;26.87;37.61;99342.53;10457971;28;20746;-70
2023/07/19 12:37:13;;;;;;;2.55;2.08;;;;;;;27.07;37.96;99357.75;10451400;28;20281;-71
2023/07/19 12:42:14;;;;;;;6.40;2.90;;;;;;;27.04;38.19;99332.84;10452473;28;20322;-71
2023/07/19 12:47:18;;;;;;;4.20;2.63;;;;;;;27.00;37.40;99307.13;10455615;28;20227;-71
2023/07/19 12:52:20;;;;;;;3.70;2.70;;;;;;;26.33;37.72;99366.81;10455703;28;20231;-70
2023/07/19 12:57:22;;;;;;;3.00;2.55;;;;;;;26.81;37.20;99354.72;10453274;28;20260;-70
2023/07/19 13:02:25;;;;;;;3.40;2.53;;;;;;;26.40;37.96;99369.16;10452322;28;20243;-71
2023/07/19 13:07:27;;;;;;;4.80;2.60;;;;;;;26.48;37.38;99373.94;10455357;28;20228;-70
2023/07/19 13:12:29;;;;;;;3.90;2.33;;;;;;;27.89;36.11;99337.88;10450774;28;20207;-71
2023/07/19 13:17:31;;;;;;;7.82;2.67;;;;;;;27.18;37.03;99369.34;10459656;28;20231;-70
2023/07/19 13:22:33;;;;;;;3.30;2.08;;;;;;;27.70;36.06;99333.38;10455188;28;20215;-71
2023/07/19 13:27:35;;;;;;;4.88;2.40;;;;;;;27.30;35.28;99358.69;10454362;28;20227;-71
2023/07/19 13:32:37;;;;;;;4.10;2.30;;;;;;;27.73;36.39;99362.16;10459621;28;20802;-71
2023/07/19 13:37:38;;;;;;;4.55;2.20;;;;;;;27.49;35.65;99339.28;10454683;28;20425;-71
2023/07/19 13:42:43;;;;;;;3.42;2.63;;;;;;;27.35;35.53;99365.19;10419919;28;20338;-72
2023/07/19 13:47:45;;;;;;;6.03;2.35;;;;;;;27.18;35.48;99349.31;10424704;28;20611;-71
2023/07/19 13:52:47;;;;;;;5.57;2.85;;;;;;;27.84;34.44;99369.06;10421126;28;20236;-70
2023/07/19 13:57:49;;;;;;;3.17;2.30;;;;;;;27.83;34.63;99348.16;10416659;28;20783;-72
2023/07/19 14:02:50;;;;;;;4.15;2.72;;;;;;;27.66;34.89;99338.63;10422376;28;20274;-74
2023/07/19 14:07:52;;;;;;;4.35;2.60;;;;;;;27.68;34.24;99355.66;10421254;28;20732;-71
2023/07/19 14:12:56;;;;;;;3.85;2.45;;;;;;;27.50;34.38;99360.16;10418745;28;20911;-71
2023/07/19 14:18:00;;;;;;;5.25;2.50;;;;;;;28.28;34.27;99326.19;10424097;28;20757;-68
2023/07/19 14:23:02;;;;;;;3.55;2.20;;;;;;;28.56;34.14;99315.81;10417917;28;20722;-69
2023/07/19 14:28:04;;;;;;;3.83;2.65;;;;;;;26.88;34.78;99374.34;10416309;28;20228;-70
2023/07/19 14:33:06;;;;;;;3.17;2.40;;;;;;;27.45;33.83;99376.75;10392762;28;20223;-69
2023/07/19 14:38:07;;;;;;;4.15;2.15;;;;;;;27.05;34.19;99373.72;10424275;28;20238;-70
2023/07/19 14:43:09;;;;;;;3.55;2.50;;;;;;;27.49;34.03;99327.50;10438193;28;22353;-70
2023/07/19 14:48:11;;;;;;;2.70;2.20;;;;;;;27.07;33.84;99356.94;10435146;28;20323;-73
2023/07/19 14:53:13;;;;;;;7.32;2.40;;;;;;;27.47;33.59;99335.25;10436920;28;20219;-70
2023/07/19 14:58:15;;;;;;;3.25;2.08;;;;;;;26.84;33.74;99381.56;10433814;28;20718;-70
2023/07/19 15:03:17;;;;;;;3.58;2.17;;;;;;;26.98;32.89;99332.16;10437666;28;20238;-70
2023/07/19 15:08:22;;;;;;;5.57;2.10;;;;;;;26.09;33.19;99357.88;10447916;28;20223;-70
2023/07/19 15:13:24;;;;;;;4.35;1.98;;;;;;;25.93;33.49;99374.56;10443037;28;20267;-70
2023/07/19 15:18:26;;;;;;;4.18;1.83;;;;;;;26.84;32.92;99334.06;10441959;28;20322;-70
2023/07/19 15:23:31;;;;;;;3.15;2.08;;;;;;;27.72;32.06;99300.91;10444262;28;20348;-70
2023/07/19 15:28:33;;;;;;;2.67;1.92;;;;;;;27.68;31.48;99341.06;10414421;28;20619;-71
2023/07/19 15:33:35;;;;;;;1.85;1.60;;;;;;;26.61;32.06;99385.25;10501256;28;20222;-69
2023/07/19 15:38:42;;;;;;;5.78;1.65;;;;;;;26.37;32.43;99358.81;10511987;28;20238;-70
2023/07/19 15:43:44;;;;;;;1.92;1.73;;;;;;;26.84;32.19;99351.38;10545338;28;20705;-69
2023/07/19 15:48:46;;;;;;;2.35;1.70;;;;;;;28.07;31.33;99319.56;10522804;28;20241;-69
2023/07/19 15:53:48;;;;;;;2.03;1.83;;;;;;;26.79;32.22;99378.91;10549204;27;20230;-70
2023/07/19 15:58:50;;;;;;;3.15;1.65;;;;;;;27.62;31.79;99340.38;10558526;28;20230;-69
2023/07/19 16:03:52;;;;;;;2.67;1.48;;;;;;;27.24;31.74;99332.44;10549216;27;20267;-68
2023/07/19 16:08:54;;;;;;;2.05;1.50;;;;;;;26.66;32.20;99352.25;10527066;27;20725;-68
2023/07/19 16:13:57;;;;;;;2.50;1.60;;;;;;;27.65;30.85;99370.00;10546896;27;20218;-68
2023/07/19 16:18:59;;;;;;;1.92;1.30;;;;;;;27.51;31.81;99355.47;10550170;28;20233;-68
2023/07/19 16:24:00;;;;;;;3.42;1.55;;;;;;;26.74;32.13;99368.03;10498187;28;20780;-69
2023/07/19 16:29:02;;;;;;;2.28;1.88;;;;;;;27.24;31.33;99359.91;10522745;28;20253;-68
2023/07/19 16:34:04;;;;;;;3.10;1.63;;;;;;;26.65;31.88;99380.78;10514042;28;20796;-68
2023/07/19 16:39:06;;;;;;;4.28;2.03;;;;;;;27.67;31.18;99375.19;10515499;28;20269;-68
2023/07/19 16:44:07;;;;;;;3.47;1.60;;;;;;;27.77;31.57;99341.19;10547646;27;20329;-68
2023/07/19 16:49:10;;;;;;;3.45;1.60;;;;;;;27.43;31.33;99392.75;10521343;28;20284;-70
2023/07/19 16:54:12;;;;;;;1.52;1.27;;;;;;;26.04;32.68;99397.13;10515120;28;20211;-68
2023/07/19 16:59:14;;;;;;;2.30;1.55;;;;;;;25.02;33.68;99378.19;10546007;27;20240;-68
2023/07/19 17:04:15;;;;;;;2.63;1.58;;;;;;;25.95;32.85;99374.28;10549348;27;20242;-67
2023/07/19 17:09:17;;;;;;;1.92;1.20;;;;;;;25.44;33.51;99354.69;10543464;27;20241;-68
2023/07/19 17:14:19;;;;;;;2.90;1.30;;;;;;;26.46;32.36;99342.47;10548238;27;20267;-65
2023/07/19 17:19:22;;;;;;;1.65;1.30;;;;;;;26.04;33.30;99323.13;10541257;28;20313;-66
2023/07/19 17:24:23;;;;;;;2.05;1.50;;;;;;;25.30;34.11;99345.56;10503608;28;20322;-69
2023/07/19 17:29:25;;;;;;;3.03;1.98;;;;;;;25.64;34.07;99331.69;10501704;28;20339;-67
2023/07/19 17:34:27;;;;;;;3.90;1.60;;;;;;;25.55;33.75;99318.94;10509600;28;20739;-67
2023/07/19 17:39:29;;;;;;;4.43;1.60;;;;;;;24.87;34.59;99392.06;10499504;28;20245;-67
2023/07/19 17:44:31;;;;;;;2.20;1.48;;;;;;;24.74;35.15;99358.78;10547201;28;20321;-67
2023/07/19 17:49:32;;;;;;;3.20;1.80;;;;;;;25.14;34.61;99360.56;10538469;28;20317;-67
2023/07/19 17:54:34;;;;;;;2.70;1.80;;;;;;;24.46;35.05;99389.69;10543663;28;20236;-67
2023/07/19 17:59:37;;;;;;;2.92;1.30;;;;;;;24.81;35.10;99368.59;10535768;28;20321;-68
2023/07/19 18:04:41;;;;;;;2.05;1.35;;;;;;;23.86;35.81;99414.44;10538444;28;20256;-67
2023/07/19 18:09:43;;;;;;;2.88;1.63;;;;;;;24.31;36.00;99345.00;10546206;28;20248;-68
2023/07/19 18:14:45;;;;;;;1.60;1.50;;;;;;;24.67;34.76;99374.72;10541616;28;20316;-67
2023/07/19 18:19:47;;;;;;;2.60;1.35;;;;;;;24.74;35.03;99402.56;10540560;28;20350;-67
2023/07/19 18:24:49;;;;;;;2.08;1.40;;;;;;;25.68;33.80;99421.50;10517634;27;20672;-67
2023/07/19 18:29:50;;;;;;;2.17;1.20;;;;;;;24.22;35.00;99427.88;10536613;27;20241;-67
2023/07/19 18:34:52;;;;;;;2.13;1.30;;;;;;;24.44;34.65;99409.09;10510242;28;20720;-68
2023/07/19 18:39:56;;;;;;;2.45;1.70;;;;;;;24.95;34.10;99435.22;10550120;28;20241;-68
2023/07/19 18:44:59;;;;;;;2.42;1.48;;;;;;;24.60;34.40;99439.06;10548844;27;20236;-68
2023/07/19 18:50:02;;;;;;;3.15;1.40;;;;;;;24.31;34.57;99462.53;10550707;27;20237;-69
2023/07/19 18:55:05;;;;;;;6.30;1.90;;;;;;;25.16;34.20;99397.47;10548617;27;20233;-69
2023/07/19 19:00:07;;;;;;;2.42;1.30;;;;;;;24.21;34.54;99484.47;10548233;27;21270;-69
2023/07/19 19:05:09;;;;;;;3.17;1.10;;;;;;;24.69;33.69;99462.78;10546865;28;20235;-69
2023/07/19 19:10:11;;;;;;;2.88;1.35;;;;;;;25.04;33.02;99481.91;10546250;28;20313;-69
2023/07/19 19:15:13;;;;;;;1.92;1.30;;;;;;;24.54;33.70;99468.38;10545393;28;20289;-70
2023/07/19 19:20:15;;;;;;;2.22;1.42;;;;;;;25.21;32.95;99468.63;10549245;28;20233;-68
2023/07/19 19:25:17;;;;;;;3.20;1.65;;;;;;;24.76;33.43;99494.47;10550733;27;20637;-70
2023/07/19 19:30:18;;;;;;;3.85;1.42;;;;;;;23.07;35.43;99494.97;10554719;27;20855;-67
2023/07/19 19:35:21;;;;;;;4.35;1.45;;;;;;;24.03;34.68;99464.06;10552923;27;20309;-66
2023/07/19 19:40:23;;;;;;;5.15;1.80;;;;;;;24.24;34.64;99475.72;10556952;27;20237;-67
2023/07/19 19:45:24;;;;;;;1.95;1.40;;;;;;;24.38;34.69;99467.69;10554819;27;20225;-70
2023/07/19 19:50:26;;;;;;;2.60;1.55;;;;;;;23.84;34.89;99534.94;10559105;27;20230;-68
2023/07/19 19:55:28;;;;;;;1.63;1.52;;;;;;;23.24;35.77;99554.72;10523911;27;20961;-69
2023/07/19 20:00:50;;;;;;;2.67;1.33;;;;;;;23.61;35.49;99500.88;10555929;27;20226;-69
2023/07/19 20:05:55;;;;;;;3.88;1.40;;;;;;;22.59;36.79;99534.50;10553042;27;20316;-69
2023/07/19 20:10:57;;;;;;;2.90;1.60;;;;;;;24.12;36.00;99480.66;10552152;27;20736;-67
2023/07/19 20:16:00;;;;;;;1.95;1.77;;;;;;;22.52;37.19;99554.69;10551826;27;21141;-66
2023/07/19 20:21:02;;;;;;;3.47;1.80;;;;;;;22.45;37.37;99542.38;10554058;27;20328;-68
2023/07/19 20:26:04;;;;;;;3.67;1.63;;;;;;;23.00;37.03;99499.06;10553106;27;20329;-68
2023/07/19 20:31:12;;;;;;;2.97;1.70;;;;;;;21.72;38.70;99563.06;10551685;27;20616;-65
2023/07/19 20:36:34;;;;;;;5.47;1.90;;;;;;;21.77;38.88;99535.84;10550972;27;20742;-67
2023/07/19 20:41:38;;;;;;;2.55;2.10;;;;;;;21.10;39.57;99539.25;10553988;27;20222;-69
2023/07/19 20:46:40;;;;;;;4.75;2.30;;;;;;;21.03;38.86;99551.16;10546910;27;20261;-68
2023/07/19 20:51:45;;;;;;;9.85;2.60;;;;;;;21.27;38.70;99549.97;10552958;27;20317;-69
2023/07/19 20:56:47;;;;;;;2.78;2.10;;;;;;;21.45;38.81;99537.88;10548836;27;20229;-68
2023/07/19 21:01:49;;;;;;;6.18;2.78;;;;;;;21.62;38.41;99516.72;10556513;27;20323;-68
2023/07/19 21:06:51;;;;;;;2.63;2.30;;;;;;;21.20;38.23;99536.59;10553972;27;20266;-68
2023/07/19 21:11:53;;;;;;;4.85;2.20;;;;;;;22.81;36.89;99491.44;10550133;27;20237;-68
2023/07/19 21:16:55;;;;;;;5.43;2.65;;;;;;;21.77;38.01;99544.03;10552732;27;20316;-68
2023/07/19 21:21:57;;;;;;;4.03;2.53;;;;;;;21.56;37.67;99569.50;10551797;27;20782;-68
2023/07/19 21:26:58;;;;;;;2.78;2.20;;;;;;;20.90;37.02;99611.41;10548544;27;20218;-69
2023/07/19 21:32:00;;;;;;;2.42;2.08;;;;;;;21.57;36.00;99625.59;10550665;27;20230;-70
2023/07/19 21:37:02;;;;;;;2.00;1.83;;;;;;;21.52;36.66;99599.16;10549495;27;20246;-69
2023/07/19 21:42:06;;;;;;;2.05;1.85;;;;;;;21.02;36.99;99650.19;10546835;28;20225;-69
2023/07/19 21:47:08;;;;;;;3.83;1.80;;;;;;;20.95;36.77;99621.53;10506550;28;20313;-68
2023/07/19 21:52:10;;;;;;;3.28;2.05;;;;;;;20.65;37.17;99618.25;10518445;28;20242;-68
2023/07/19 21:57:12;;;;;;;2.60;2.20;;;;;;;20.75;36.88;99614.81;10542293;27;20325;-70
2023/07/19 22:02:13;;;;;;;2.40;1.90;;;;;;;21.84;35.87;99551.16;10502500;28;20454;-70
2023/07/19 22:07:15;;;;;;;2.05;1.85;;;;;;;21.15;36.69;99590.97;10513923;28;20223;-70
2023/07/19 22:12:17;;;;;;;2.67;1.70;;;;;;;20.91;36.87;99637.56;10508160;28;20332;-70
2023/07/19 22:17:19;;;;;;;3.45;2.08;;;;;;;20.81;36.93;99645.59;10506606;28;20301;-70
2023/07/19 22:22:21;;;;;;;1.98;1.80;;;;;;;21.30;36.97;99572.03;10510544;28;20203;-70
2023/07/19 22:27:22;;;;;;;2.72;1.98;;;;;;;20.46;37.18;99616.94;10501971;28;20315;-70
2023/07/19 22:32:24;;;;;;;3.90;1.88;;;;;;;18.76;38.79;99692.97;10506814;28;20736;-69
2023/07/19 22:37:26;;;;;;;1.80;1.70;;;;;;;19.79;37.92;99667.66;10505017;28;20984;-69
2023/07/19 22:42:27;;;;;;;2.85;2.10;;;;;;;20.12;37.83;99644.19;10506274;28;20207;-69
2023/07/19 22:47:30;;;;;;;3.88;2.55;;;;;;;20.26;37.92;99580.31;10505512;28;20322;-69
2023/07/19 22:52:32;;;;;;;2.25;1.92;;;;;;;20.59;37.99;99613.00;10507052;28;20237;-69
2023/07/19 22:57:33;;;;;;;2.25;2.08;;;;;;;20.60;37.88;99607.31;10498593;28;20311;-69
2023/07/19 23:02:35;;;;;;;2.45;2.13;;;;;;;20.76;38.04;99613.72;10498286;28;20658;-70
2023/07/19 23:07:37;;;;;;;2.53;2.28;;;;;;;20.12;38.65;99657.78;10503346;28;20619;-69
2023/07/19 23:12:40;;;;;;;2.30;2.10;;;;;;;20.15;39.04;99602.97;10495725;28;20660;-69
2023/07/19 23:17:42;;;;;;;3.17;2.10;;;;;;;20.27;39.48;99568.34;10505541;28;20320;-70
2023/07/19 23:22:44;;;;;;;2.65;2.00;;;;;;;19.45;39.93;99645.09;10505895;28;20231;-70
2023/07/19 23:27:46;;;;;;;2.60;2.22;;;;;;;19.72;39.64;99599.13;10503503;28;20227;-70